createdAt,value
2018-04-27T00:00:26.469Z,97741.18
2018-04-27T00:02:57.528Z,97738.71
2018-04-27T00:05:28.608Z,97737.03
2018-04-27T00:07:59.661Z,97732.06
2018-04-27T00:10:30.703Z,97731.29
2018-04-27T00:13:01.803Z,97725.88
2018-04-27T00:15:32.818Z,97726.17
2018-04-27T00:18:03.859Z,97724.38
2018-04-27T00:20:34.863Z,97726.02
2018-04-27T00:23:05.897Z,97723.23
2018-04-27T00:25:36.972Z,97737.86
2018-04-27T00:28:08.022Z,97732.30
2018-04-27T00:30:39.083Z,97738.06
2018-04-27T00:33:10.184Z,97727.02
2018-04-27T00:35:41.217Z,97731.69
2018-04-27T00:38:12.284Z,97726.44
2018-04-27T00:40:43.325Z,97730.95
2018-04-27T00:43:14.357Z,97726.54
2018-04-27T00:45:45.389Z,97728.22
2018-04-27T00:48:16.439Z,97724.27
2018-04-27T00:50:47.518Z,97729.02
2018-04-27T00:53:18.573Z,97725.35
2018-04-27T00:55:49.643Z,97723.72
2018-04-27T00:58:20.707Z,97711.05
2018-04-27T01:00:51.792Z,97714.16
2018-04-27T01:03:22.894Z,97709.76
2018-04-27T01:05:53.916Z,97702.95
2018-04-27T01:08:24.940Z,97699.63
2018-04-27T01:10:55.949Z,97706.01
2018-04-27T01:13:26.998Z,97701.73
2018-04-27T01:15:58.037Z,97701.09
2018-04-27T01:18:29.091Z,97702.97
2018-04-27T01:21:00.182Z,97696.33
2018-04-27T01:23:31.939Z,97695.94
2018-04-27T01:26:02.998Z,97693.11
2018-04-27T01:28:34.065Z,97686.92
2018-04-27T01:31:05.127Z,97686.17
2018-04-27T01:33:36.180Z,97685.89
2018-04-27T01:36:07.225Z,97682.97
2018-04-27T01:38:38.251Z,97679.09
2018-04-27T01:41:09.275Z,97678.80
2018-04-27T01:43:40.330Z,97682.95
2018-04-27T01:46:11.445Z,97679.86
2018-04-27T01:48:42.503Z,97676.02
2018-04-27T01:51:13.538Z,97669.50
2018-04-27T01:53:44.628Z,97676.39
2018-04-27T01:56:15.705Z,97674.06
2018-04-27T01:58:46.740Z,97673.16
2018-04-27T02:01:17.727Z,97670.42
2018-04-27T02:03:48.772Z,97674.44
2018-04-27T02:06:19.775Z,97682.85
2018-04-27T02:08:50.840Z,97670.31
2018-04-27T02:11:21.889Z,97671.73
2018-04-27T02:13:52.953Z,97672.94
2018-04-27T02:16:23.996Z,97674.09
2018-04-27T02:18:55.044Z,97661.20
2018-04-27T02:21:26.072Z,97660.92
2018-04-27T02:23:57.078Z,97658.74
2018-04-27T02:26:28.116Z,97655.83
2018-04-27T02:28:59.126Z,97651.00
2018-04-27T02:31:30.181Z,97646.54
2018-04-27T02:34:01.169Z,97647.91
2018-04-27T02:36:32.210Z,97641.89
2018-04-27T02:39:03.288Z,97642.76
2018-04-27T02:41:34.319Z,97649.34
2018-04-27T02:44:05.337Z,97646.23
2018-04-27T02:46:36.445Z,97653.37
2018-04-27T02:49:07.446Z,97640.09
2018-04-27T03:06:16.880Z,97630.50
2018-04-27T03:08:48.755Z,97627.27
2018-04-27T03:11:19.774Z,97626.97
2018-04-27T03:13:50.763Z,97620.08
2018-04-27T03:16:36.837Z,97614.21
2018-04-27T03:19:15.959Z,97610.09
2018-04-27T03:30:36.295Z,97617.22
